Comet — WDE9884 — position and weather

sailwx.info

Track history (hours):
 
Tides and Currents Weather Stations Pressure Air Temp Water Temp Dewpoint Dewpoint Depression Visibility Wind Speed Wind Dir Waves Ship Positions

Comet

Owner: Tug Comet, Tampa, FL. More information available from US FCC via Universal Licensing System and Coast Guard Vessel Documentation Center.

Last reported at 2018-Apr-22 15:26 UTC. Time now 2018-Apr-23 13:28 UTC.
Position N 40°47' W 073°60'.

Length 34 m; draft 5.2 m.

Type: Tug. MMSI: 367422430.

Date/timePositionNaut miles runAvg speedWind from/ knotsBaromVisibWave heightAir tempDewpointWater temp
2018-Apr-22 15:26N 40°47' W 073°60'4 8.6
2018-Apr-22 15:01N 40°43' W 074°01'4 7.9
2018-Apr-22 14:30N 40°40' W 074°03'4 7.9
2018-Apr-22 13:58N 40°39' W 074°09'1 0.5
2018-Apr-22 12:07N 40°39' W 074°10'1 7.5
2018-Apr-22 12:00N 40°39' W 074°09'3 7.1
2018-Apr-22 11:30N 40°39' W 074°04'5 9.2
2018-Apr-22 11:01N 40°43' W 074°01'11 0.2
2018-Apr-20 13:31N 40°54' W 073°55'0 9.5
2018-Apr-20 13:28N 40°53' W 073°56'4 9.3
2018-Apr-20 13:00N 40°49' W 073°58'4 8.5
2018-Apr-20 12:29N 40°45' W 074°01'3 7.0
2018-Apr-20 12:00N 40°42' W 074°02'2 4.6
2018-Apr-20 11:30N 40°41' W 074°04'0 0.4
2018-Apr-20 11:00N 40°41' W 074°04'0 0.2
2018-Apr-20 10:30N 40°41' W 074°04'0 0.0
2018-Apr-20 10:00N 40°41' W 074°04'0 0.0
2018-Apr-20 09:30N 40°41' W 074°04'0 0.0
2018-Apr-20 09:00N 40°41' W 074°04'0 0.0
2018-Apr-20 08:30N 40°41' W 074°04'1 1.5
2018-Apr-20 08:00N 40°40' W 074°03'3 6.3
2018-Apr-20 07:30N 40°43' W 074°01'4 8.7
2018-Apr-20 07:00N 40°47' W 073°60'4 8.6
2018-Apr-20 06:29N 40°51' W 073°57'  
2018-Apr-17 23:07N 40°56' W 073°55'2 8.0
2018-Apr-17 22:54N 40°54' W 073°55'3 7.9
2018-Apr-17 22:30N 40°51' W 073°57'4 7.6
2018-Apr-17 21:59N 40°48' W 073°59'3 7.2
2018-Apr-17 21:31N 40°44' W 074°01'3 6.3
2018-Apr-17 21:00N 40°41' W 074°02'3 5.7
2018-Apr-17 20:30N 40°39' W 074°04'4 8.0
2018-Apr-17 20:00N 40°39' W 074°09'2 3.4
2018-Apr-17 19:30N 40°38' W 074°12'1 2.3
2018-Apr-17 18:59N 40°39' W 074°10'0 0.0
2018-Apr-17 18:30N 40°39' W 074°10'2 3.2
2018-Apr-17 18:00N 40°39' W 074°08'1 2.0
2018-Apr-17 17:30N 40°39' W 074°07'0 0.0
2018-Apr-17 17:01N 40°39' W 074°07'0 0.0
2018-Apr-17 16:29N 40°39' W 074°07'0 0.0
2018-Apr-17 16:00N 40°39' W 074°07'0 0.0
2018-Apr-17 15:30N 40°39' W 074°07'0 0.0
2018-Apr-17 14:59N 40°39' W 074°07'0 0.0
2018-Apr-17 14:30N 40°39' W 074°07'0 0.0
2018-Apr-17 14:01N 40°39' W 074°07'0 0.0
2018-Apr-17 13:24N 40°39' W 074°07'0 0.0
2018-Apr-17 12:59N 40°39' W 074°07'0 0.0
2018-Apr-17 12:30N 40°39' W 074°07'4 7.2
2018-Apr-17 12:00N 40°39' W 074°11'0 1.0
2018-Apr-17 11:30N 40°38' W 074°12'0 0.0
2018-Apr-17 11:00N 40°38' W 074°12'0 0.2
2018-Apr-17 10:30N 40°38' W 074°12'3 5.5
2018-Apr-17 10:00N 40°39' W 074°08'1 1.6
2018-Apr-17 09:30N 40°38' W 074°07'3 5.8
2018-Apr-17 09:00N 40°39' W 074°04'510.0
2018-Apr-17 08:30N 40°42' W 073°58'0 0.2
2018-Apr-17 08:00N 40°42' W 073°58'0 0.0
2018-Apr-17 07:30N 40°42' W 073°58'2 3.1
2018-Apr-17 07:00N 40°42' W 074°00'4 8.6
2018-Apr-17 06:30N 40°46' W 074°00'611.8
2018-Apr-17 06:00N 40°52' W 073°57'  
Track history (hours):
 
Tides and Currents Weather Stations Pressure Air Temp Water Temp Dewpoint Dewpoint Depression Visibility Wind Speed Wind Dir Waves Ship Positions

Comet

Owner: Tug Comet, Tampa, FL. More information available from US FCC via Universal Licensing System and Coast Guard Vessel Documentation Center.

Last reported at 2018-Apr-22 15:26 UTC. Time now 2018-Apr-23 13:28 UTC.
Position N 40°47' W 073°60'.

Length 34 m; draft 5.2 m.

Type: Tug. MMSI: 367422430.

Date/timePositionNaut miles runAvg speedWind from/ knotsBaromVisibWave heightAir tempDewpointWater temp
2018-Apr-22 15:26N 40°47' W 073°60'4 8.6
2018-Apr-22 15:01N 40°43' W 074°01'4 7.9
2018-Apr-22 14:30N 40°40' W 074°03'4 7.9
2018-Apr-22 13:58N 40°39' W 074°09'1 0.5
2018-Apr-22 12:07N 40°39' W 074°10'1 7.5
2018-Apr-22 12:00N 40°39' W 074°09'3 7.1
2018-Apr-22 11:30N 40°39' W 074°04'5 9.2
2018-Apr-22 11:01N 40°43' W 074°01'11 0.2
2018-Apr-20 13:31N 40°54' W 073°55'0 9.5
2018-Apr-20 13:28N 40°53' W 073°56'4 9.3
2018-Apr-20 13:00N 40°49' W 073°58'4 8.5
2018-Apr-20 12:29N 40°45' W 074°01'3 7.0
2018-Apr-20 12:00N 40°42' W 074°02'2 4.6
2018-Apr-20 11:30N 40°41' W 074°04'0 0.4
2018-Apr-20 11:00N 40°41' W 074°04'0 0.2
2018-Apr-20 10:30N 40°41' W 074°04'0 0.0
2018-Apr-20 10:00N 40°41' W 074°04'0 0.0
2018-Apr-20 09:30N 40°41' W 074°04'0 0.0
2018-Apr-20 09:00N 40°41' W 074°04'0 0.0
2018-Apr-20 08:30N 40°41' W 074°04'1 1.5
2018-Apr-20 08:00N 40°40' W 074°03'3 6.3
2018-Apr-20 07:30N 40°43' W 074°01'4 8.7
2018-Apr-20 07:00N 40°47' W 073°60'4 8.6
2018-Apr-20 06:29N 40°51' W 073°57'  
2018-Apr-17 23:07N 40°56' W 073°55'2 8.0
2018-Apr-17 22:54N 40°54' W 073°55'3 7.9
2018-Apr-17 22:30N 40°51' W 073°57'4 7.6
2018-Apr-17 21:59N 40°48' W 073°59'3 7.2
2018-Apr-17 21:31N 40°44' W 074°01'3 6.3
2018-Apr-17 21:00N 40°41' W 074°02'3 5.7
2018-Apr-17 20:30N 40°39' W 074°04'4 8.0
2018-Apr-17 20:00N 40°39' W 074°09'2 3.4
2018-Apr-17 19:30N 40°38' W 074°12'1 2.3
2018-Apr-17 18:59N 40°39' W 074°10'0 0.0
2018-Apr-17 18:30N 40°39' W 074°10'2 3.2
2018-Apr-17 18:00N 40°39' W 074°08'1 2.0
2018-Apr-17 17:30N 40°39' W 074°07'0 0.0
2018-Apr-17 17:01N 40°39' W 074°07'0 0.0
2018-Apr-17 16:29N 40°39' W 074°07'0 0.0
2018-Apr-17 16:00N 40°39' W 074°07'0 0.0
2018-Apr-17 15:30N 40°39' W 074°07'0 0.0
2018-Apr-17 14:59N 40°39' W 074°07'0 0.0
2018-Apr-17 14:30N 40°39' W 074°07'0 0.0
2018-Apr-17 14:01N 40°39' W 074°07'0 0.0
2018-Apr-17 13:24N 40°39' W 074°07'0 0.0
2018-Apr-17 12:59N 40°39' W 074°07'0 0.0
2018-Apr-17 12:30N 40°39' W 074°07'4 7.2
2018-Apr-17 12:00N 40°39' W 074°11'0 1.0
2018-Apr-17 11:30N 40°38' W 074°12'0 0.0
2018-Apr-17 11:00N 40°38' W 074°12'0 0.2
2018-Apr-17 10:30N 40°38' W 074°12'3 5.5
2018-Apr-17 10:00N 40°39' W 074°08'1 1.6
2018-Apr-17 09:30N 40°38' W 074°07'3 5.8
2018-Apr-17 09:00N 40°39' W 074°04'510.0
2018-Apr-17 08:30N 40°42' W 073°58'0 0.2
2018-Apr-17 08:00N 40°42' W 073°58'0 0.0
2018-Apr-17 07:30N 40°42' W 073°58'2 3.1
2018-Apr-17 07:00N 40°42' W 074°00'4 8.6
2018-Apr-17 06:30N 40°46' W 074°00'611.8
2018-Apr-17 06:00N 40°52' W 073°57'  

Dump ship's entire track history